createdAt,value
2018-03-27T00:01:56.981Z,78.86
2018-03-27T00:04:25.413Z,78.70
2018-03-27T00:06:57.078Z,78.97
2018-03-27T00:09:25.604Z,79.18
2018-03-27T00:11:54.234Z,79.03
2018-03-27T00:14:22.654Z,79.22
2018-03-27T00:16:52.820Z,79.14
2018-03-27T00:19:21.192Z,79.14
2018-03-27T00:21:49.624Z,79.27
2018-03-27T00:24:18.062Z,79.35
2018-03-27T00:26:52.639Z,79.88
2018-03-27T00:29:30.743Z,79.45
2018-03-27T00:32:11.685Z,79.50
2018-03-27T00:34:52.260Z,79.63
2018-03-27T00:37:36.941Z,79.48
2018-03-27T00:40:17.690Z,79.62
2018-03-27T00:42:53.167Z,79.77
2018-03-27T00:45:21.493Z,79.63
2018-03-27T00:47:49.816Z,79.48
2018-03-27T00:50:18.195Z,79.57
2018-03-27T00:52:46.596Z,79.44
2018-03-27T00:55:16.388Z,79.55
2018-03-27T00:57:44.756Z,79.81
2018-03-27T01:00:13.196Z,79.81
2018-03-27T01:02:41.643Z,79.81
2018-03-27T01:05:10.125Z,79.78
2018-03-27T01:07:40.541Z,79.63
2018-03-27T01:10:08.976Z,79.53
2018-03-27T01:12:39.392Z,79.55
2018-03-27T01:15:07.906Z,79.67
2018-03-27T01:17:36.385Z,79.49
2018-03-27T01:20:04.826Z,79.28
2018-03-27T01:22:33.268Z,79.12
2018-03-27T01:25:01.728Z,79.05
2018-03-27T01:27:36.183Z,79.16
2018-03-27T01:30:04.705Z,79.37
2018-03-27T01:32:33.128Z,79.03
2018-03-27T01:35:01.551Z,79.14
2018-03-27T01:37:33.525Z,79.22
2018-03-27T01:40:01.955Z,79.53
2018-03-27T01:42:30.389Z,79.59
2018-03-27T01:44:58.829Z,79.76
2018-03-27T01:47:28.656Z,79.71
2018-03-27T01:49:57.036Z,79.69
2018-03-27T01:52:25.433Z,79.50
2018-03-27T01:54:53.844Z,79.42
2018-03-27T01:57:22.275Z,79.01
2018-03-27T01:59:51.589Z,79.18
2018-03-27T02:02:20.342Z,79.01
2018-03-27T02:04:48.773Z,79.25
2018-03-27T02:07:17.181Z,79.41
2018-03-27T02:09:45.633Z,79.55
2018-03-27T02:12:21.156Z,79.55
2018-03-27T02:14:55.784Z,79.83
2018-03-27T02:17:33.732Z,79.70
2018-03-27T02:20:08.241Z,79.96
2018-03-27T02:22:43.220Z,79.74
2018-03-27T02:25:11.588Z,79.84
2018-03-27T02:27:39.984Z,80.32
2018-03-27T02:30:08.413Z,80.41
2018-03-27T02:32:36.868Z,80.25
2018-03-27T02:35:05.269Z,80.86
2018-03-27T02:37:35.318Z,81.38
2018-03-27T02:40:03.735Z,81.35
2018-03-27T02:42:32.475Z,81.08
2018-03-27T02:45:00.890Z,81.20
2018-03-27T02:47:30.622Z,81.26
2018-03-27T02:50:01.131Z,81.28
2018-03-27T02:52:33.260Z,81.14
2018-03-27T02:55:01.681Z,80.85
2018-03-27T02:57:30.083Z,80.69
2018-03-27T02:59:58.520Z,80.58
2018-03-27T03:02:30.634Z,80.83
2018-03-27T03:05:00.558Z,81.20
2018-03-27T03:07:28.955Z,80.97
2018-03-27T03:09:59.793Z,81.08
2018-03-27T03:12:28.249Z,80.62
2018-03-27T03:14:56.653Z,80.95
2018-03-27T03:17:25.082Z,80.76
2018-03-27T03:19:53.532Z,79.75
2018-03-27T03:22:21.979Z,79.36
2018-03-27T03:24:50.419Z,80.01
2018-03-27T03:27:20.498Z,80.32
2018-03-27T03:29:50.502Z,80.36
2018-03-27T03:32:18.902Z,80.25
2018-03-27T03:34:50.738Z,80.38
2018-03-27T03:37:19.133Z,80.26
2018-03-27T03:39:47.513Z,80.20
2018-03-27T03:42:15.925Z,79.72
2018-03-27T03:44:45.865Z,79.33
2018-03-27T03:47:14.558Z,79.32
2018-03-27T03:49:42.978Z,79.42
2018-03-27T03:52:12.949Z,79.24
2018-03-27T03:54:41.394Z,78.40
2018-03-27T03:57:15.916Z,78.69
2018-03-27T03:59:45.785Z,78.32
2018-03-27T04:02:14.189Z,79.02
2018-03-27T04:04:42.956Z,78.55
2018-03-27T04:07:12.953Z,78.44
2018-03-27T04:09:41.372Z,78.52
2018-03-27T04:12:09.898Z,78.92
2018-03-27T04:14:38.341Z,79.11
2018-03-27T04:17:06.749Z,78.89
2018-03-27T04:19:38.585Z,79.59
2018-03-27T04:22:07.025Z,80.33
2018-03-27T04:24:35.513Z,80.13
2018-03-27T04:27:03.948Z,79.60
2018-03-27T04:29:34.360Z,79.23
2018-03-27T04:32:03.113Z,79.70
2018-03-27T04:34:33.261Z,79.56
2018-03-27T04:37:01.706Z,79.71
2018-03-27T04:39:30.154Z,79.25
2018-03-27T04:41:59.553Z,80.09
2018-03-27T04:44:28.165Z,80.60
2018-03-27T04:47:03.610Z,80.68
2018-03-27T04:49:32.213Z,80.56
2018-03-27T04:52:00.645Z,81.05
2018-03-27T04:54:29.059Z,80.48
2018-03-27T04:56:57.437Z,80.76
2018-03-27T04:59:25.946Z,79.99
2018-03-27T05:01:54.397Z,80.32
2018-03-27T05:04:24.377Z,81.22
2018-03-27T05:06:54.358Z,80.25
2018-03-27T05:09:22.776Z,79.78
2018-03-27T05:11:51.212Z,79.61
2018-03-27T05:14:19.645Z,79.38
2018-03-27T05:16:48.057Z,79.56
2018-03-27T05:19:16.493Z,79.77
2018-03-27T05:21:44.889Z,79.79
2018-03-27T05:24:15.290Z,79.85
2018-03-27T05:26:43.734Z,80.08
2018-03-27T05:29:12.493Z,80.50
2018-03-27T05:31:40.929Z,79.63
2018-03-27T05:34:11.293Z,80.02
2018-03-27T05:36:39.726Z,79.91
2018-03-27T05:39:08.197Z,79.19
2018-03-27T05:41:38.665Z,79.52
2018-03-27T05:44:09.996Z,79.52
2018-03-27T05:46:40.593Z,79.76
2018-03-27T05:49:09.137Z,79.85
2018-03-27T05:51:37.515Z,80.23
2018-03-27T05:54:06.397Z,80.85
2018-03-27T05:56:34.833Z,80.76
2018-03-27T05:59:03.253Z,80.51
2018-03-27T06:01:32.613Z,79.94
2018-03-27T06:04:01.064Z,79.37
2018-03-27T06:06:29.489Z,79.25
2018-03-27T06:08:57.871Z,78.61
2018-03-27T06:11:26.286Z,77.33
2018-03-27T06:13:54.843Z,76.06
2018-03-27T06:16:23.252Z,76.08
2018-03-27T06:18:51.687Z,75.75
2018-03-27T06:21:20.137Z,75.28
2018-03-27T06:23:48.555Z,74.35
2018-03-27T06:26:19.281Z,74.04
2018-03-27T06:28:47.718Z,73.71
2018-03-27T06:31:16.299Z,72.93
2018-03-27T06:33:44.669Z,72.13
2018-03-27T06:36:13.081Z,70.66
2018-03-27T06:38:42.702Z,69.95
2018-03-27T06:41:11.128Z,69.43
2018-03-27T06:43:40.968Z,68.58
2018-03-27T06:46:09.410Z,67.24
2018-03-27T06:48:38.132Z,67.86
2018-03-27T06:51:06.527Z,68.37
2018-03-27T06:53:34.962Z,68.58
2018-03-27T06:56:05.005Z,68.19
2018-03-27T06:58:33.432Z,68.10
2018-03-27T07:01:02.740Z,67.31
2018-03-27T07:03:31.765Z,67.56
2018-03-27T07:06:00.234Z,67.83
2018-03-27T07:08:30.248Z,67.19
2018-03-27T07:10:58.702Z,65.13
2018-03-27T07:13:28.357Z,66.08
2018-03-27T07:15:56.790Z,65.05
2018-03-27T07:18:25.224Z,63.73
2018-03-27T07:20:53.693Z,63.06
2018-03-27T07:23:22.105Z,63.64
2018-03-27T07:25:51.849Z,62.19
2018-03-27T07:28:21.052Z,61.06
2018-03-27T07:30:50.857Z,58.31
2018-03-27T07:33:21.013Z,58.57
2018-03-27T07:35:50.789Z,58.73
2018-03-27T07:38:19.246Z,58.93
2018-03-27T07:40:47.693Z,56.83
2018-03-27T07:43:16.790Z,55.14
2018-03-27T07:45:47.842Z,51.88
2018-03-27T07:48:16.210Z,48.96
2018-03-27T07:50:46.420Z,47.56
2018-03-27T07:53:15.888Z,44.79
2018-03-27T07:55:45.866Z,44.08
2018-03-27T07:58:13.354Z,42.42
2018-03-27T08:00:42.888Z,40.62
2018-03-27T08:03:11.321Z,40.72
2018-03-27T08:05:39.147Z,39.52
2018-03-27T08:08:08.917Z,41.17
2018-03-27T08:10:37.342Z,39.14
2018-03-27T08:13:05.734Z,39.13
2018-03-27T08:15:33.030Z,37.24
2018-03-27T08:18:02.508Z,35.61
2018-03-27T08:20:30.927Z,35.08
2018-03-27T08:22:58.292Z,35.28
2018-03-27T08:25:28.048Z,35.93
2018-03-27T08:27:56.397Z,36.34
2018-03-27T08:30:24.846Z,36.43
2018-03-27T08:32:52.166Z,34.68
2018-03-27T08:35:21.636Z,33.15
2018-03-27T08:37:50.062Z,33.63
2018-03-27T08:40:18.558Z,33.98
2018-03-27T08:42:47.027Z,32.80
2018-03-27T08:45:15.453Z,32.71
2018-03-27T08:47:45.382Z,33.71
2018-03-27T08:50:13.833Z,30.75
2018-03-27T08:52:43.369Z,32.11
2018-03-27T08:55:12.698Z,32.33
2018-03-27T08:57:41.074Z,30.41
2018-03-27T09:00:09.516Z,30.51
2018-03-27T09:02:38.195Z,28.37
2018-03-27T09:05:07.690Z,27.27
2018-03-27T09:07:36.133Z,30.90
2018-03-27T09:10:04.611Z,31.27
2018-03-27T09:12:34.065Z,29.25
2018-03-27T09:15:02.725Z,26.38
2018-03-27T09:17:31.229Z,26.88
2018-03-27T09:19:59.600Z,24.29
2018-03-27T09:22:29.258Z,23.02
2018-03-27T09:24:58.704Z,21.92
2018-03-27T09:27:27.077Z,22.20
2018-03-27T09:29:55.521Z,23.80
2018-03-27T09:32:23.906Z,21.29
2018-03-27T09:34:52.270Z,21.67
2018-03-27T09:37:20.758Z,21.33
2018-03-27T09:39:50.552Z,21.52
2018-03-27T09:42:19.013Z,21.21
2018-03-27T09:44:48.890Z,20.01
2018-03-27T09:47:17.886Z,21.67
2018-03-27T09:49:46.297Z,21.58
2018-03-27T09:52:17.257Z,23.16
2018-03-27T09:54:45.728Z,24.31
2018-03-27T09:57:14.207Z,24.62
2018-03-27T09:59:42.712Z,25.23
2018-03-27T10:02:11.081Z,25.02
2018-03-27T10:04:39.460Z,24.52
2018-03-27T10:07:07.909Z,23.44
2018-03-27T10:09:36.360Z,22.84
2018-03-27T10:12:04.773Z,22.78
2018-03-27T10:14:34.206Z,23.80
2018-03-27T10:17:02.588Z,24.49
2018-03-27T10:19:32.732Z,25.18
2018-03-27T10:22:01.463Z,25.03
2018-03-27T10:24:29.857Z,27.23
2018-03-27T10:27:01.711Z,29.51
2018-03-27T10:29:30.160Z,31.96
2018-03-27T10:31:58.584Z,30.68
2018-03-27T10:34:28.294Z,31.10
2018-03-27T10:36:58.054Z,30.50
2018-03-27T10:39:27.800Z,30.51
2018-03-27T10:41:57.125Z,30.51
2018-03-27T10:44:25.600Z,29.73
2018-03-27T10:46:54.033Z,30.81
2018-03-27T10:49:22.431Z,30.01
2018-03-27T10:51:52.820Z,29.88
2018-03-27T10:54:22.666Z,29.99
2018-03-27T10:56:53.113Z,29.97
2018-03-27T10:59:21.549Z,30.55
2018-03-27T11:01:49.957Z,29.67
2018-03-27T11:04:18.404Z,29.38
2018-03-27T11:06:48.275Z,29.88
2018-03-27T11:09:16.658Z,28.82
2018-03-27T11:11:46.469Z,27.29
2018-03-27T11:14:16.252Z,27.67
2018-03-27T11:16:44.690Z,28.00
2018-03-27T11:19:14.405Z,27.24
2018-03-27T11:21:42.881Z,27.83
2018-03-27T11:24:11.607Z,27.70
2018-03-27T11:26:40.049Z,27.84
2018-03-27T11:29:09.600Z,29.17
2018-03-27T11:31:38.941Z,29.23
2018-03-27T11:34:07.396Z,29.69
2018-03-27T11:36:35.822Z,29.23
2018-03-27T11:39:06.142Z,29.45
2018-03-27T11:41:36.065Z,29.87
2018-03-27T11:44:04.462Z,28.79
2018-03-27T11:46:32.873Z,29.09
2018-03-27T11:49:01.627Z,27.85
2018-03-27T11:51:30.049Z,25.67
2018-03-27T11:53:59.569Z,25.98
2018-03-27T11:56:30.688Z,24.92
2018-03-27T11:59:00.237Z,26.28
2018-03-27T12:01:29.842Z,26.06
2018-03-27T12:03:58.405Z,26.82
2018-03-27T12:06:27.863Z,26.81
2018-03-27T12:08:56.334Z,26.84
2018-03-27T12:11:25.771Z,27.93
2018-03-27T12:13:54.189Z,29.16
2018-03-27T12:16:23.918Z,29.29
2018-03-27T12:18:52.337Z,28.79
2018-03-27T12:21:20.733Z,29.11
2018-03-27T12:23:49.156Z,29.11
2018-03-27T12:26:18.636Z,29.58
2018-03-27T12:28:48.206Z,29.37
2018-03-27T12:31:16.971Z,29.34
2018-03-27T12:33:46.410Z,32.04
2018-03-27T12:36:14.866Z,30.17
2018-03-27T12:38:43.277Z,30.53
2018-03-27T12:41:11.716Z,29.78
2018-03-27T12:43:41.394Z,30.30
2018-03-27T12:46:11.624Z,29.74
2018-03-27T12:48:40.073Z,29.63
2018-03-27T12:51:08.547Z,30.36
2018-03-27T12:53:37.060Z,30.70
2018-03-27T12:56:05.502Z,30.68
2018-03-27T12:58:35.296Z,31.78
2018-03-27T13:01:03.673Z,32.84
2018-03-27T13:03:33.426Z,32.31
2018-03-27T13:06:03.264Z,33.03
2018-03-27T13:08:31.715Z,33.76
2018-03-27T13:11:00.446Z,35.04
2018-03-27T13:13:29.533Z,35.18
2018-03-27T13:15:57.949Z,34.80
2018-03-27T13:18:26.373Z,33.92
2018-03-27T13:20:54.791Z,34.86
2018-03-27T13:23:23.556Z,34.74
2018-03-27T13:25:53.001Z,36.02
2018-03-27T13:28:21.468Z,37.03
2018-03-27T13:30:50.034Z,36.02
2018-03-27T13:33:18.444Z,35.32
2018-03-27T13:35:46.921Z,35.75
2018-03-27T13:38:16.773Z,35.35
2018-03-27T13:40:46.305Z,35.17
2018-03-27T13:43:16.026Z,35.11
2018-03-27T13:45:44.449Z,35.04
2018-03-27T13:48:12.928Z,34.47
2018-03-27T13:50:42.392Z,34.20
2018-03-27T13:53:10.760Z,34.94
2018-03-27T13:55:40.677Z,34.51
2018-03-27T13:58:10.243Z,33.04
2018-03-27T14:00:38.677Z,33.30
2018-03-27T14:03:08.576Z,33.41
2018-03-27T14:05:37.304Z,34.00
2018-03-27T14:08:06.700Z,33.71
2018-03-27T14:10:35.112Z,34.99
2018-03-27T14:13:03.543Z,33.55
2018-03-27T14:15:31.935Z,35.07
2018-03-27T14:18:02.557Z,35.56
2018-03-27T14:20:30.977Z,36.27
2018-03-27T14:23:00.441Z,36.09
2018-03-27T14:25:30.264Z,35.45
2018-03-27T14:28:00.872Z,35.90
2018-03-27T14:30:29.351Z,36.15
2018-03-27T14:32:59.207Z,36.29
2018-03-27T14:35:28.655Z,36.98
2018-03-27T14:37:58.113Z,37.58
2018-03-27T14:40:26.596Z,36.02
2018-03-27T14:42:55.048Z,36.70
2018-03-27T14:45:24.925Z,37.08
2018-03-27T14:47:54.295Z,36.60
2018-03-27T14:50:23.796Z,37.33
2018-03-27T14:52:54.457Z,38.01
2018-03-27T14:55:24.177Z,37.99
2018-03-27T14:57:55.412Z,37.35
2018-03-27T15:00:24.825Z,38.38
2018-03-27T15:02:53.241Z,38.20
2018-03-27T15:05:21.669Z,37.39
2018-03-27T15:07:51.222Z,37.70
2018-03-27T15:10:19.751Z,37.89
2018-03-27T15:12:50.557Z,37.39
2018-03-27T15:15:18.979Z,37.25
2018-03-27T15:17:47.403Z,37.92
2018-03-27T15:20:16.975Z,37.71
2018-03-27T15:22:45.465Z,38.62
2018-03-27T15:25:13.869Z,39.29
2018-03-27T15:27:42.356Z,39.73
2018-03-27T15:30:11.769Z,39.63
2018-03-27T15:32:41.623Z,39.70
2018-03-27T15:35:10.190Z,40.70
2018-03-27T15:37:38.604Z,41.27
2018-03-27T15:40:08.513Z,41.33
2018-03-27T15:42:36.927Z,41.79
2018-03-27T15:45:06.832Z,41.79
2018-03-27T15:47:37.843Z,41.04
2018-03-27T15:50:06.297Z,40.52
2018-03-27T15:52:35.657Z,41.11
2018-03-27T15:55:04.096Z,42.02
2018-03-27T15:57:32.565Z,41.52
2018-03-27T16:00:01.008Z,41.17
2018-03-27T16:02:29.510Z,40.27
2018-03-27T16:04:57.937Z,39.98
2018-03-27T16:07:26.346Z,40.17
2018-03-27T16:09:54.772Z,41.82
2018-03-27T16:12:23.215Z,43.25
2018-03-27T16:14:51.683Z,44.19
2018-03-27T16:17:20.136Z,44.52
2018-03-27T16:19:48.576Z,45.08
2018-03-27T16:22:17.289Z,45.89
2018-03-27T16:24:45.752Z,46.06
2018-03-27T16:27:14.180Z,46.02
2018-03-27T16:29:42.608Z,46.16
2018-03-27T16:32:10.964Z,47.17
2018-03-27T16:34:44.000Z,46.99
2018-03-27T16:37:12.441Z,47.35
2018-03-27T16:39:40.950Z,47.60
2018-03-27T16:42:09.328Z,48.02
2018-03-27T16:44:37.823Z,48.52
2018-03-27T16:47:06.279Z,49.80
2018-03-27T16:49:35.721Z,50.15
2018-03-27T16:52:04.172Z,50.61
2018-03-27T16:54:32.611Z,50.79
2018-03-27T16:57:01.030Z,50.70
2018-03-27T16:59:29.425Z,50.71
2018-03-27T17:01:57.831Z,50.95
2018-03-27T17:04:30.250Z,51.66
2018-03-27T17:06:58.760Z,51.23
2018-03-27T17:09:27.221Z,51.43
2018-03-27T17:11:55.696Z,51.87
2018-03-27T17:14:28.300Z,52.14
2018-03-27T17:16:57.028Z,52.71
2018-03-27T17:19:25.425Z,53.30
2018-03-27T17:21:53.947Z,53.92
2018-03-27T17:24:24.666Z,54.36
2018-03-27T17:26:53.072Z,54.49
2018-03-27T17:29:21.497Z,54.87
2018-03-27T17:31:49.949Z,54.46
2018-03-27T17:34:18.414Z,55.53
2018-03-27T17:36:46.817Z,56.17
2018-03-27T17:39:15.282Z,56.86
2018-03-27T17:41:43.701Z,57.63
2018-03-27T17:44:12.398Z,57.64
2018-03-27T17:46:44.408Z,57.70
2018-03-27T17:49:12.912Z,59.02
2018-03-27T17:51:43.414Z,58.97
2018-03-27T17:54:11.857Z,60.22
2018-03-27T17:56:40.321Z,62.22
2018-03-27T17:59:10.497Z,62.76
2018-03-27T18:01:38.926Z,63.12
2018-03-27T18:04:07.442Z,63.82
2018-03-27T18:06:37.986Z,64.43
2018-03-27T18:09:06.437Z,64.22
2018-03-27T18:11:36.597Z,64.73
2018-03-27T18:14:05.031Z,65.74
2018-03-27T18:16:33.533Z,65.92
2018-03-27T18:19:02.296Z,65.65
2018-03-27T18:21:31.748Z,66.21
2018-03-27T18:24:00.252Z,65.81
2018-03-27T18:26:28.738Z,66.02
2018-03-27T18:28:57.170Z,67.05
2018-03-27T18:31:25.584Z,66.76
2018-03-27T18:33:54.087Z,67.22
2018-03-27T18:36:24.610Z,67.62
2018-03-27T18:38:53.126Z,68.04
2018-03-27T18:41:21.635Z,68.25
2018-03-27T18:43:51.887Z,68.44
2018-03-27T18:46:22.447Z,68.12
2018-03-27T18:48:50.962Z,68.55
2018-03-27T18:51:23.804Z,68.57
2018-03-27T18:53:52.512Z,69.39
2018-03-27T18:56:20.968Z,69.17
2018-03-27T18:58:51.798Z,68.95
2018-03-27T19:01:24.428Z,69.41
2018-03-27T19:03:52.932Z,68.93
2018-03-27T19:06:22.248Z,68.17
2018-03-27T19:08:50.781Z,69.23
2018-03-27T19:11:19.232Z,69.77
2018-03-27T19:13:47.663Z,70.14
2018-03-27T19:16:16.133Z,70.48
2018-03-27T19:18:46.710Z,70.12
2018-03-27T19:21:15.386Z,70.30
2018-03-27T19:23:46.053Z,70.25
2018-03-27T19:26:16.960Z,71.20
2018-03-27T19:28:45.412Z,71.47
2018-03-27T19:31:13.913Z,71.51
2018-03-27T19:33:42.356Z,72.25
2018-03-27T19:36:13.221Z,71.88
2018-03-27T19:38:43.808Z,71.62
2018-03-27T19:41:14.391Z,71.88
2018-03-27T19:43:42.781Z,72.78
2018-03-27T19:46:11.201Z,73.18
2018-03-27T19:48:41.808Z,73.27
2018-03-27T19:51:12.273Z,73.37
2018-03-27T19:53:40.706Z,74.13
2018-03-27T19:56:09.141Z,74.21
2018-03-27T19:58:39.662Z,74.55
2018-03-27T20:01:08.080Z,74.71
2018-03-27T20:03:40.719Z,74.92
2018-03-27T20:06:09.853Z,74.61
2018-03-27T20:08:40.705Z,74.60
2018-03-27T20:11:11.219Z,75.11
2018-03-27T20:13:39.656Z,74.79
2018-03-27T20:16:08.125Z,74.76
2018-03-27T20:18:36.542Z,74.88
2018-03-27T20:21:05.018Z,74.40
2018-03-27T20:23:34.364Z,75.06
2018-03-27T20:26:04.960Z,74.83
2018-03-27T20:28:33.413Z,75.38
2018-03-27T20:31:01.848Z,75.80
2018-03-27T20:33:32.129Z,76.14
2018-03-27T20:36:00.565Z,76.43
2018-03-27T20:38:29.329Z,76.13
2018-03-27T20:40:58.631Z,76.26
2018-03-27T20:43:29.261Z,76.89
2018-03-27T20:45:57.736Z,76.90
2018-03-27T20:48:26.159Z,77.69
2018-03-27T20:50:54.573Z,77.90
2018-03-27T20:53:25.143Z,77.69
2018-03-27T20:55:53.602Z,77.51
2018-03-27T20:58:22.008Z,78.10
2018-03-27T21:00:52.521Z,78.25
2018-03-27T21:03:20.998Z,77.78
2018-03-27T21:05:51.833Z,78.11
2018-03-27T21:08:22.489Z,78.58
2018-03-27T21:10:50.936Z,78.67
2018-03-27T21:13:19.453Z,78.78
2018-03-27T21:15:47.895Z,78.65
2018-03-27T21:18:18.489Z,79.03
2018-03-27T21:20:46.916Z,79.33
2018-03-27T21:23:15.400Z,79.63
2018-03-27T21:25:43.862Z,79.49
2018-03-27T21:28:12.568Z,79.64
2018-03-27T21:30:43.228Z,80.02
2018-03-27T21:33:11.686Z,79.66
2018-03-27T21:35:40.152Z,79.89
2018-03-27T21:38:08.928Z,80.17
2018-03-27T21:40:39.100Z,79.79
2018-03-27T21:43:07.520Z,80.14
2018-03-27T21:45:38.074Z,80.34
2018-03-27T21:48:08.250Z,80.00
2018-03-27T21:50:39.121Z,79.62
2018-03-27T21:53:07.561Z,79.80
2018-03-27T21:55:35.976Z,79.99
2018-03-27T21:58:04.429Z,79.95
2018-03-27T22:00:32.845Z,80.36
2018-03-27T22:03:03.408Z,80.61
2018-03-27T22:05:33.967Z,80.43
2018-03-27T22:08:04.204Z,80.48
2018-03-27T22:10:33.193Z,80.66
2018-03-27T22:13:01.595Z,80.66
2018-03-27T22:15:29.979Z,80.66
2018-03-27T22:17:58.978Z,81.13
2018-03-27T22:20:27.662Z,80.90
2018-03-27T22:22:56.063Z,81.04
2018-03-27T22:25:24.451Z,81.12
2018-03-27T22:27:52.890Z,81.19
2018-03-27T22:30:21.264Z,81.35
2018-03-27T22:32:49.962Z,81.49
2018-03-27T22:35:18.335Z,81.50
2018-03-27T22:37:46.711Z,81.04
2018-03-27T22:40:15.546Z,81.02
2018-03-27T22:42:46.097Z,81.36
2018-03-27T22:45:14.509Z,81.52
2018-03-27T22:47:42.923Z,81.42
2018-03-27T22:50:12.323Z,81.22
2018-03-27T22:52:42.809Z,81.06
2018-03-27T22:55:12.065Z,81.01
2018-03-27T22:57:40.482Z,81.27
2018-03-27T23:00:08.902Z,81.04
2018-03-27T23:02:37.247Z,80.91
2018-03-27T23:05:07.686Z,80.73
2018-03-27T23:07:36.114Z,80.93
2018-03-27T23:10:04.505Z,81.01
2018-03-27T23:12:33.118Z,80.99
2018-03-27T23:15:01.494Z,80.81
2018-03-27T23:17:29.903Z,80.96
2018-03-27T23:19:58.323Z,81.24
2018-03-27T23:22:27.594Z,81.39
2018-03-27T23:24:58.377Z,81.46
2018-03-27T23:27:26.769Z,81.69
2018-03-27T23:29:55.154Z,81.89
2018-03-27T23:32:23.544Z,82.08
2018-03-27T23:34:51.958Z,82.04
2018-03-27T23:37:20.353Z,81.91
2018-03-27T23:39:50.902Z,82.04
2018-03-27T23:42:19.919Z,82.18
2018-03-27T23:44:48.326Z,82.36
2018-03-27T23:47:16.779Z,82.11
2018-03-27T23:49:45.179Z,82.32
2018-03-27T23:52:13.619Z,82.50
2018-03-27T23:54:42.042Z,82.90
2018-03-27T23:57:10.413Z,82.87
2018-03-27T23:59:38.850Z,82.90
